This is the latest recevied weather packets stored in our database for station/object W3JGB. If no packets are shown the sender has not sent any weather packets the latest 10 day(s).
| Time | Temp. | Humidity | Pressure | Rain* | Wind** | Luminosity | Snow |
|---|---|---|---|---|---|---|---|
| 1777987835 | 22.78° C | 56% | 1008.4 hPa | 0 mm | - | 453 W/m² | - |
| 1777987532 | 22.78° C | 57% | 1008.5 hPa | 0 mm | - | 388 W/m² | - |
| 1777987230 | 22.22° C | 55% | 1008.5 hPa | 0 mm | - | 480 W/m² | - |
| 1777986926 | 21.67° C | 59% | 1008.4 hPa | 0 mm | - | 413 W/m² | - |
| 1777986322 | 21.67° C | 58% | 1008.6 hPa | 0 mm | - | 334 W/m² | - |
| 1777984806 | 19.44° C | 73% | 1008.8 hPa | 0 mm | - | 277 W/m² | - |
| 1777984503 | 18.33° C | 74% | 1008.7 hPa | 0 mm | - | 263 W/m² | - |
| 1777984199 | 16.67° C | 85% | 1008.7 hPa | 0 mm | - | 212 W/m² | - |
| 1777983896 | 15.56° C | 88% | 1008.9 hPa | 0 mm | - | 214 W/m² | - |
| 1777983593 | 15.56° C | 90% | 1008.9 hPa | 0 mm | - | 65 W/m² | - |
| 1777981168 | 12.78° C | 94% | 1008.9 hPa | 0 mm | - | 36 W/m² | - |
| 1777980865 | 12.22° C | 95% | 1008.7 hPa | 0 mm | - | 52 W/m² | - |
| 1777980561 | 11.67° C | 95% | 1008.7 hPa | 0 mm | - | 55 W/m² | - |
| 1777980259 | 11.67° C | 95% | 1008.9 hPa | 0 mm | - | 31 W/m² | - |
| 1777979955 | 11.11° C | 97% | 1008.8 hPa | 0 mm | - | 23 W/m² | - |
| 1777979649 | 10.56° C | 97% | 1008.2 hPa | 0 mm | - | 14 W/m² | - |
| 1777979043 | 10° C | 98% | 1008.4 hPa | 0 mm | - | 17 W/m² | - |
| 1777978740 | 10° C | 98% | 1008.4 hPa | 0 mm | - | 20 W/m² | - |
| 1777978436 | 10° C | 98% | 1008.5 hPa | 0 mm | - | 13 W/m² | - |
| 1777978133 | 9.44° C | 98% | 1008.4 hPa | 0 mm | - | 10 W/m² | - |
| 1777977525 | 9.44° C | 99% | 1008.2 hPa | 0 mm | - | 19 W/m² | - |
| 1777977224 | 8.89° C | 99% | 1008.2 hPa | 0 mm | - | 18 W/m² | - |
| 1777976921 | 8.89° C | 99% | 1008.1 hPa | 0 mm | - | 11 W/m² | - |
| 1777976618 | 8.89° C | 99% | 1008.1 hPa | 0 mm | - | 8 W/m² | - |
| 1777976313 | 8.89° C | 99% | 1008.4 hPa | 0 mm | - | 6 W/m² | - |
* Rain latest hour (hover to see other rain measurements)
** Current wind speed in m/s (hover to see current wind gust speed)